sensor_id;sensor_type;location;lat;lon;timestamp;P1;durP1;ratioP1;P2;durP2;ratioP2
61806;SDS011;47726;52.766;6.606;2023-03-01T00:01:05;16.33;;;12.35;;
61806;SDS011;47726;52.766;6.606;2023-03-01T00:03:33;15.07;;;12.63;;
61806;SDS011;47726;52.766;6.606;2023-03-01T00:05:59;17.17;;;12.40;;
61806;SDS011;47726;52.766;6.606;2023-03-01T00:08:25;16.33;;;11.80;;
61806;SDS011;47726;52.766;6.606;2023-03-01T00:11:05;15.52;;;11.68;;
61806;SDS011;47726;52.766;6.606;2023-03-01T00:13:31;15.07;;;11.35;;
61806;SDS011;47726;52.766;6.606;2023-03-01T00:15:56;16.20;;;12.05;;
61806;SDS011;47726;52.766;6.606;2023-03-01T00:18:22;15.23;;;12.27;;
61806;SDS011;47726;52.766;6.606;2023-03-01T00:20:49;16.40;;;11.93;;
61806;SDS011;47726;52.766;6.606;2023-03-01T00:23:16;18.58;;;13.20;;
61806;SDS011;47726;52.766;6.606;2023-03-01T00:25:42;16.90;;;13.20;;
61806;SDS011;47726;52.766;6.606;2023-03-01T00:28:08;16.90;;;12.75;;
61806;SDS011;47726;52.766;6.606;2023-03-01T00:30:34;17.83;;;12.77;;
61806;SDS011;47726;52.766;6.606;2023-03-01T00:32:59;25.75;;;17.17;;
61806;SDS011;47726;52.766;6.606;2023-03-01T00:35:25;25.48;;;16.88;;
61806;SDS011;47726;52.766;6.606;2023-03-01T00:37:50;28.98;;;16.98;;
61806;SDS011;47726;52.766;6.606;2023-03-01T00:40:22;29.80;;;17.75;;
61806;SDS011;47726;52.766;6.606;2023-03-01T00:42:49;26.55;;;16.52;;
61806;SDS011;47726;52.766;6.606;2023-03-01T00:45:14;25.27;;;16.58;;
61806;SDS011;47726;52.766;6.606;2023-03-01T00:47:40;21.63;;;15.70;;
61806;SDS011;47726;52.766;6.606;2023-03-01T00:50:06;27.23;;;17.33;;
61806;SDS011;47726;52.766;6.606;2023-03-01T00:52:32;30.90;;;18.13;;
61806;SDS011;47726;52.766;6.606;2023-03-01T00:54:57;30.65;;;17.80;;
61806;SDS011;47726;52.766;6.606;2023-03-01T00:57:23;28.48;;;16.83;;
61806;SDS011;47726;52.766;6.606;2023-03-01T00:59:49;28.05;;;17.42;;
61806;SDS011;47726;52.766;6.606;2023-03-01T01:02:14;23.65;;;16.45;;
61806;SDS011;47726;52.766;6.606;2023-03-01T01:04:40;21.80;;;15.82;;
61806;SDS011;47726;52.766;6.606;2023-03-01T01:07:06;23.27;;;16.40;;
61806;SDS011;47726;52.766;6.606;2023-03-01T01:09:31;30.92;;;18.85;;
61806;SDS011;47726;52.766;6.606;2023-03-01T01:11:57;32.05;;;19.45;;
61806;SDS011;47726;52.766;6.606;2023-03-01T01:14:22;25.52;;;18.52;;
61806;SDS011;47726;52.766;6.606;2023-03-01T01:16:48;23.33;;;17.48;;
61806;SDS011;47726;52.766;6.606;2023-03-01T01:19:14;24.35;;;17.75;;
61806;SDS011;47726;52.766;6.606;2023-03-01T01:21:40;26.42;;;17.98;;
61806;SDS011;47726;52.766;6.606;2023-03-01T01:24:08;24.27;;;18.67;;
61806;SDS011;47726;52.766;6.606;2023-03-01T01:26:33;28.08;;;20.20;;
61806;SDS011;47726;52.766;6.606;2023-03-01T01:29:00;27.48;;;19.83;;
61806;SDS011;47726;52.766;6.606;2023-03-01T01:31:27;24.98;;;19.73;;
61806;SDS011;47726;52.766;6.606;2023-03-01T01:33:53;24.42;;;19.45;;
61806;SDS011;47726;52.766;6.606;2023-03-01T01:36:20;26.40;;;19.38;;
61806;SDS011;47726;52.766;6.606;2023-03-01T01:38:46;28.50;;;21.10;;
61806;SDS011;47726;52.766;6.606;2023-03-01T01:41:12;27.60;;;20.92;;
61806;SDS011;47726;52.766;6.606;2023-03-01T01:43:40;27.30;;;19.55;;
61806;SDS011;47726;52.766;6.606;2023-03-01T01:46:21;26.40;;;20.60;;
61806;SDS011;47726;52.766;6.606;2023-03-01T01:48:54;27.55;;;21.08;;
61806;SDS011;47726;52.766;6.606;2023-03-01T01:53:53;28.33;;;20.05;;
61806;SDS011;47726;52.766;6.606;2023-03-01T01:56:24;27.13;;;21.05;;
61806;SDS011;47726;52.766;6.606;2023-03-01T01:58:51;26.23;;;20.60;;
61806;SDS011;47726;52.766;6.606;2023-03-01T02:01:17;24.67;;;19.35;;
61806;SDS011;47726;52.766;6.606;2023-03-01T02:03:44;24.67;;;18.95;;
61806;SDS011;47726;52.766;6.606;2023-03-01T02:06:12;23.92;;;18.63;;
61806;SDS011;47726;52.766;6.606;2023-03-01T02:08:42;25.58;;;19.63;;
61806;SDS011;47726;52.766;6.606;2023-03-01T02:11:10;25.90;;;18.92;;
61806;SDS011;47726;52.766;6.606;2023-03-01T02:13:39;25.98;;;19.30;;
61806;SDS011;47726;52.766;6.606;2023-03-01T02:16:09;25.60;;;19.38;;
61806;SDS011;47726;52.766;6.606;2023-03-01T02:18:36;25.10;;;19.50;;
61806;SDS011;47726;52.766;6.606;2023-03-01T02:24:23;23.70;;;17.65;;
61806;SDS011;47726;52.766;6.606;2023-03-01T02:27:10;26.30;;;19.45;;
61806;SDS011;47726;52.766;6.606;2023-03-01T02:29:36;25.52;;;18.40;;
61806;SDS011;47726;52.766;6.606;2023-03-01T02:32:02;26.27;;;18.77;;
61806;SDS011;47726;52.766;6.606;2023-03-01T02:34:29;25.00;;;18.77;;
61806;SDS011;47726;52.766;6.606;2023-03-01T02:36:58;24.17;;;18.15;;
61806;SDS011;47726;52.766;6.606;2023-03-01T02:39:33;24.27;;;18.58;;
61806;SDS011;47726;52.766;6.606;2023-03-01T02:42:06;24.77;;;18.75;;
61806;SDS011;47726;52.766;6.606;2023-03-01T02:44:38;24.80;;;19.02;;
61806;SDS011;47726;52.766;6.606;2023-03-01T02:47:03;23.27;;;17.85;;
61806;SDS011;47726;52.766;6.606;2023-03-01T02:49:32;22.63;;;17.77;;
61806;SDS011;47726;52.766;6.606;2023-03-01T02:57:16;21.20;;;17.77;;
61806;SDS011;47726;52.766;6.606;2023-03-01T02:59:42;20.67;;;17.10;;
61806;SDS011;47726;52.766;6.606;2023-03-01T03:02:18;19.33;;;16.50;;
61806;SDS011;47726;52.766;6.606;2023-03-01T03:05:00;17.85;;;15.70;;
61806;SDS011;47726;52.766;6.606;2023-03-01T03:07:38;20.23;;;16.83;;
61806;SDS011;47726;52.766;6.606;2023-03-01T03:10:07;20.77;;;17.75;;
61806;SDS011;47726;52.766;6.606;2023-03-01T03:12:36;18.88;;;16.88;;
61806;SDS011;47726;52.766;6.606;2023-03-01T03:15:02;18.20;;;16.15;;
61806;SDS011;47726;52.766;6.606;2023-03-01T03:17:34;16.83;;;15.02;;
61806;SDS011;47726;52.766;6.606;2023-03-01T03:20:01;18.15;;;15.25;;
61806;SDS011;47726;52.766;6.606;2023-03-01T03:22:28;18.05;;;15.75;;
61806;SDS011;47726;52.766;6.606;2023-03-01T03:24:54;17.75;;;14.98;;
61806;SDS011;47726;52.766;6.606;2023-03-01T03:27:19;17.55;;;15.63;;
61806;SDS011;47726;52.766;6.606;2023-03-01T03:29:45;17.48;;;15.60;;
61806;SDS011;47726;52.766;6.606;2023-03-01T03:32:11;16.77;;;14.88;;
61806;SDS011;47726;52.766;6.606;2023-03-01T03:34:36;18.30;;;15.25;;
61806;SDS011;47726;52.766;6.606;2023-03-01T03:37:02;18.67;;;15.52;;
61806;SDS011;47726;52.766;6.606;2023-03-01T03:39:27;18.90;;;16.50;;
61806;SDS011;47726;52.766;6.606;2023-03-01T03:41:53;19.35;;;16.13;;
61806;SDS011;47726;52.766;6.606;2023-03-01T03:44:20;18.45;;;15.90;;
61806;SDS011;47726;52.766;6.606;2023-03-01T03:46:45;18.92;;;15.88;;
61806;SDS011;47726;52.766;6.606;2023-03-01T03:49:11;17.90;;;15.50;;
61806;SDS011;47726;52.766;6.606;2023-03-01T03:51:37;18.33;;;16.10;;
61806;SDS011;47726;52.766;6.606;2023-03-01T03:54:02;20.17;;;16.00;;
61806;SDS011;47726;52.766;6.606;2023-03-01T03:56:28;17.45;;;15.15;;
61806;SDS011;47726;52.766;6.606;2023-03-01T03:58:54;19.63;;;15.38;;
61806;SDS011;47726;52.766;6.606;2023-03-01T04:01:19;19.08;;;15.25;;
61806;SDS011;47726;52.766;6.606;2023-03-01T04:03:45;17.98;;;15.57;;
61806;SDS011;47726;52.766;6.606;2023-03-01T04:06:14;18.33;;;15.60;;
61806;SDS011;47726;52.766;6.606;2023-03-01T04:08:40;18.75;;;14.85;;
61806;SDS011;47726;52.766;6.606;2023-03-01T04:11:06;18.02;;;15.90;;
61806;SDS011;47726;52.766;6.606;2023-03-01T04:13:51;17.52;;;14.57;;
61806;SDS011;47726;52.766;6.606;2023-03-01T04:16:19;18.77;;;15.93;;
61806;SDS011;47726;52.766;6.606;2023-03-01T04:18:45;18.70;;;15.43;;
61806;SDS011;47726;52.766;6.606;2023-03-01T04:21:11;19.33;;;16.55;;
61806;SDS011;47726;52.766;6.606;2023-03-01T04:23:37;20.25;;;16.67;;
61806;SDS011;47726;52.766;6.606;2023-03-01T04:26:04;21.50;;;17.48;;
61806;SDS011;47726;52.766;6.606;2023-03-01T04:28:33;23.05;;;16.83;;
61806;SDS011;47726;52.766;6.606;2023-03-01T04:33:38;21.58;;;16.77;;
61806;SDS011;47726;52.766;6.606;2023-03-01T04:36:07;21.75;;;17.50;;
61806;SDS011;47726;52.766;6.606;2023-03-01T04:38:34;20.13;;;16.50;;
61806;SDS011;47726;52.766;6.606;2023-03-01T04:41:02;21.48;;;16.80;;
61806;SDS011;47726;52.766;6.606;2023-03-01T04:43:28;19.08;;;15.75;;
61806;SDS011;47726;52.766;6.606;2023-03-01T04:45:54;19.70;;;15.32;;
61806;SDS011;47726;52.766;6.606;2023-03-01T04:48:24;17.63;;;14.70;;
61806;SDS011;47726;52.766;6.606;2023-03-01T04:50:50;18.75;;;14.65;;
61806;SDS011;47726;52.766;6.606;2023-03-01T04:53:15;16.77;;;14.63;;
61806;SDS011;47726;52.766;6.606;2023-03-01T04:55:43;16.73;;;13.95;;
61806;SDS011;47726;52.766;6.606;2023-03-01T04:58:09;17.20;;;14.20;;
61806;SDS011;47726;52.766;6.606;2023-03-01T05:00:34;18.67;;;15.60;;
61806;SDS011;47726;52.766;6.606;2023-03-01T05:03:00;17.17;;;14.52;;
61806;SDS011;47726;52.766;6.606;2023-03-01T05:05:36;17.40;;;14.60;;
61806;SDS011;47726;52.766;6.606;2023-03-01T05:08:04;18.77;;;15.32;;
61806;SDS011;47726;52.766;6.606;2023-03-01T05:10:31;19.05;;;15.43;;
61806;SDS011;47726;52.766;6.606;2023-03-01T05:12:59;18.80;;;15.63;;
61806;SDS011;47726;52.766;6.606;2023-03-01T05:15:26;20.55;;;17.38;;
61806;SDS011;47726;52.766;6.606;2023-03-01T05:17:54;20.15;;;17.83;;
61806;SDS011;47726;52.766;6.606;2023-03-01T05:20:23;22.52;;;19.00;;
61806;SDS011;47726;52.766;6.606;2023-03-01T05:22:49;22.83;;;19.35;;
61806;SDS011;47726;52.766;6.606;2023-03-01T05:25:15;25.10;;;20.50;;
61806;SDS011;47726;52.766;6.606;2023-03-01T05:27:42;22.63;;;19.13;;
61806;SDS011;47726;52.766;6.606;2023-03-01T05:30:08;22.48;;;18.30;;
61806;SDS011;47726;52.766;6.606;2023-03-01T05:32:41;21.35;;;17.90;;
61806;SDS011;47726;52.766;6.606;2023-03-01T05:35:09;20.30;;;17.30;;
61806;SDS011;47726;52.766;6.606;2023-03-01T05:37:42;21.73;;;18.30;;
61806;SDS011;47726;52.766;6.606;2023-03-01T05:40:10;22.70;;;18.52;;
61806;SDS011;47726;52.766;6.606;2023-03-01T05:42:44;23.52;;;19.10;;
61806;SDS011;47726;52.766;6.606;2023-03-01T05:45:11;22.38;;;17.48;;
61806;SDS011;47726;52.766;6.606;2023-03-01T05:47:38;22.00;;;18.23;;
61806;SDS011;47726;52.766;6.606;2023-03-01T05:52:47;22.92;;;17.92;;
61806;SDS011;47726;52.766;6.606;2023-03-01T05:55:21;22.73;;;18.40;;
61806;SDS011;47726;52.766;6.606;2023-03-01T05:57:47;34.28;;;21.40;;
61806;SDS011;47726;52.766;6.606;2023-03-01T06:02:41;48.65;;;25.25;;
61806;SDS011;47726;52.766;6.606;2023-03-01T06:05:08;54.15;;;27.70;;
61806;SDS011;47726;52.766;6.606;2023-03-01T06:07:35;53.80;;;25.98;;
61806;SDS011;47726;52.766;6.606;2023-03-01T06:10:01;48.00;;;24.83;;
61806;SDS011;47726;52.766;6.606;2023-03-01T06:12:31;44.85;;;23.65;;
61806;SDS011;47726;52.766;6.606;2023-03-01T06:14:58;40.53;;;21.17;;
61806;SDS011;47726;52.766;6.606;2023-03-01T06:17:24;37.25;;;21.42;;
61806;SDS011;47726;52.766;6.606;2023-03-01T06:19:49;36.80;;;21.98;;
61806;SDS011;47726;52.766;6.606;2023-03-01T06:22:15;38.65;;;21.85;;
61806;SDS011;47726;52.766;6.606;2023-03-01T06:24:41;41.03;;;22.35;;
61806;SDS011;47726;52.766;6.606;2023-03-01T06:27:06;51.53;;;25.25;;
61806;SDS011;47726;52.766;6.606;2023-03-01T06:29:32;99.43;;;34.30;;
61806;SDS011;47726;52.766;6.606;2023-03-01T06:31:57;129.65;;;41.55;;
61806;SDS011;47726;52.766;6.606;2023-03-01T06:34:23;126.97;;;40.67;;
61806;SDS011;47726;52.766;6.606;2023-03-01T06:36:48;117.90;;;40.33;;
61806;SDS011;47726;52.766;6.606;2023-03-01T06:39:14;112.90;;;38.58;;
61806;SDS011;47726;52.766;6.606;2023-03-01T06:41:41;111.18;;;37.33;;
61806;SDS011;47726;52.766;6.606;2023-03-01T06:44:07;93.93;;;35.33;;
61806;SDS011;47726;52.766;6.606;2023-03-01T06:46:32;89.57;;;33.40;;
61806;SDS011;47726;52.766;6.606;2023-03-01T06:48:58;80.93;;;31.67;;
61806;SDS011;47726;52.766;6.606;2023-03-01T06:51:23;71.68;;;30.48;;
61806;SDS011;47726;52.766;6.606;2023-03-01T06:53:50;64.28;;;27.80;;
61806;SDS011;47726;52.766;6.606;2023-03-01T06:56:15;57.55;;;26.70;;
61806;SDS011;47726;52.766;6.606;2023-03-01T06:58:41;55.90;;;28.67;;
61806;SDS011;47726;52.766;6.606;2023-03-01T07:01:07;48.17;;;27.33;;
61806;SDS011;47726;52.766;6.606;2023-03-01T07:03:33;45.55;;;26.50;;
61806;SDS011;47726;52.766;6.606;2023-03-01T07:05:59;44.88;;;26.38;;
61806;SDS011;47726;52.766;6.606;2023-03-01T07:08:25;42.67;;;25.95;;
61806;SDS011;47726;52.766;6.606;2023-03-01T07:10:59;43.00;;;26.95;;
61806;SDS011;47726;52.766;6.606;2023-03-01T07:13:27;42.88;;;25.38;;
61806;SDS011;47726;52.766;6.606;2023-03-01T07:15:53;46.13;;;26.77;;
61806;SDS011;47726;52.766;6.606;2023-03-01T07:18:18;46.72;;;26.40;;
61806;SDS011;47726;52.766;6.606;2023-03-01T07:20:44;95.18;;;36.40;;
61806;SDS011;47726;52.766;6.606;2023-03-01T07:23:09;76.30;;;32.47;;
61806;SDS011;47726;52.766;6.606;2023-03-01T07:25:35;62.08;;;29.20;;
61806;SDS011;47726;52.766;6.606;2023-03-01T07:28:01;56.80;;;26.50;;
61806;SDS011;47726;52.766;6.606;2023-03-01T07:30:26;51.65;;;25.08;;
61806;SDS011;47726;52.766;6.606;2023-03-01T07:32:53;39.83;;;22.90;;
61806;SDS011;47726;52.766;6.606;2023-03-01T07:35:20;32.42;;;20.98;;
61806;SDS011;47726;52.766;6.606;2023-03-01T07:37:46;30.20;;;20.40;;
61806;SDS011;47726;52.766;6.606;2023-03-01T07:40:11;32.33;;;21.98;;
61806;SDS011;47726;52.766;6.606;2023-03-01T07:42:37;35.00;;;23.58;;
61806;SDS011;47726;52.766;6.606;2023-03-01T07:45:09;30.67;;;21.77;;
61806;SDS011;47726;52.766;6.606;2023-03-01T07:50:18;31.02;;;22.30;;
61806;SDS011;47726;52.766;6.606;2023-03-01T07:52:45;28.67;;;20.55;;
61806;SDS011;47726;52.766;6.606;2023-03-01T07:55:11;31.30;;;21.77;;
61806;SDS011;47726;52.766;6.606;2023-03-01T07:57:37;31.73;;;22.00;;
61806;SDS011;47726;52.766;6.606;2023-03-01T08:00:03;29.55;;;21.90;;
61806;SDS011;47726;52.766;6.606;2023-03-01T08:02:29;31.20;;;22.35;;
61806;SDS011;47726;52.766;6.606;2023-03-01T08:04:55;30.80;;;22.35;;
61806;SDS011;47726;52.766;6.606;2023-03-01T08:07:21;32.20;;;22.45;;
61806;SDS011;47726;52.766;6.606;2023-03-01T08:09:46;31.48;;;23.98;;
61806;SDS011;47726;52.766;6.606;2023-03-01T08:12:12;32.42;;;24.42;;
61806;SDS011;47726;52.766;6.606;2023-03-01T08:14:37;33.53;;;23.63;;
61806;SDS011;47726;52.766;6.606;2023-03-01T08:17:03;31.73;;;24.00;;
61806;SDS011;47726;52.766;6.606;2023-03-01T08:19:29;32.60;;;23.35;;
61806;SDS011;47726;52.766;6.606;2023-03-01T08:21:54;32.45;;;24.73;;
61806;SDS011;47726;52.766;6.606;2023-03-01T08:24:23;28.65;;;22.15;;
61806;SDS011;47726;52.766;6.606;2023-03-01T08:26:49;32.33;;;23.15;;
61806;SDS011;47726;52.766;6.606;2023-03-01T08:29:14;31.25;;;22.80;;
61806;SDS011;47726;52.766;6.606;2023-03-01T08:31:40;35.75;;;25.40;;
61806;SDS011;47726;52.766;6.606;2023-03-01T08:34:08;53.53;;;28.00;;
61806;SDS011;47726;52.766;6.606;2023-03-01T08:36:39;55.13;;;27.67;;
61806;SDS011;47726;52.766;6.606;2023-03-01T08:39:06;31.38;;;20.38;;
61806;SDS011;47726;52.766;6.606;2023-03-01T08:41:33;27.13;;;19.08;;
61806;SDS011;47726;52.766;6.606;2023-03-01T08:43:59;30.10;;;19.58;;
61806;SDS011;47726;52.766;6.606;2023-03-01T08:46:26;26.17;;;19.50;;
61806;SDS011;47726;52.766;6.606;2023-03-01T08:49:12;25.02;;;18.25;;
61806;SDS011;47726;52.766;6.606;2023-03-01T08:51:40;26.48;;;18.85;;
61806;SDS011;47726;52.766;6.606;2023-03-01T08:54:07;26.85;;;18.38;;
61806;SDS011;47726;52.766;6.606;2023-03-01T08:56:37;23.85;;;17.88;;
61806;SDS011;47726;52.766;6.606;2023-03-01T08:59:03;23.23;;;17.42;;
61806;SDS011;47726;52.766;6.606;2023-03-01T09:01:29;27.70;;;19.33;;
61806;SDS011;47726;52.766;6.606;2023-03-01T09:03:54;28.63;;;19.80;;
61806;SDS011;47726;52.766;6.606;2023-03-01T09:06:23;26.38;;;18.00;;
61806;SDS011;47726;52.766;6.606;2023-03-01T09:08:49;30.92;;;20.50;;
61806;SDS011;47726;52.766;6.606;2023-03-01T09:11:17;28.58;;;18.83;;
61806;SDS011;47726;52.766;6.606;2023-03-01T09:13:46;26.27;;;17.52;;
61806;SDS011;47726;52.766;6.606;2023-03-01T09:16:13;24.38;;;16.60;;
61806;SDS011;47726;52.766;6.606;2023-03-01T09:18:42;24.73;;;17.80;;
61806;SDS011;47726;52.766;6.606;2023-03-01T09:23:44;21.30;;;16.85;;
61806;SDS011;47726;52.766;6.606;2023-03-01T09:26:15;21.70;;;16.15;;
61806;SDS011;47726;52.766;6.606;2023-03-01T09:28:46;21.08;;;15.70;;
61806;SDS011;47726;52.766;6.606;2023-03-01T09:31:14;22.23;;;15.82;;
61806;SDS011;47726;52.766;6.606;2023-03-01T09:33:41;19.00;;;15.07;;
61806;SDS011;47726;52.766;6.606;2023-03-01T09:36:09;22.13;;;16.05;;
61806;SDS011;47726;52.766;6.606;2023-03-01T09:38:39;20.95;;;15.23;;
61806;SDS011;47726;52.766;6.606;2023-03-01T09:43:52;16.05;;;12.43;;
61806;SDS011;47726;52.766;6.606;2023-03-01T09:46:23;16.70;;;12.45;;
61806;SDS011;47726;52.766;6.606;2023-03-01T09:48:51;15.85;;;12.07;;
61806;SDS011;47726;52.766;6.606;2023-03-01T09:51:31;13.25;;;10.23;;
61806;SDS011;47726;52.766;6.606;2023-03-01T09:53:59;10.13;;;7.47;;
61806;SDS011;47726;52.766;6.606;2023-03-01T09:56:32;11.25;;;7.28;;
61806;SDS011;47726;52.766;6.606;2023-03-01T10:04:49;7.72;;;5.78;;
61806;SDS011;47726;52.766;6.606;2023-03-01T10:09:51;7.68;;;5.00;;
61806;SDS011;47726;52.766;6.606;2023-03-01T10:12:18;8.15;;;5.38;;
61806;SDS011;47726;52.766;6.606;2023-03-01T10:14:54;7.45;;;4.60;;
61806;SDS011;47726;52.766;6.606;2023-03-01T10:17:41;7.78;;;5.05;;
61806;SDS011;47726;52.766;6.606;2023-03-01T10:20:17;7.88;;;5.03;;
61806;SDS011;47726;52.766;6.606;2023-03-01T10:22:50;7.50;;;5.35;;
61806;SDS011;47726;52.766;6.606;2023-03-01T10:25:23;10.55;;;5.20;;
61806;SDS011;47726;52.766;6.606;2023-03-01T10:27:52;8.20;;;5.13;;
61806;SDS011;47726;52.766;6.606;2023-03-01T10:32:46;7.97;;;4.75;;
61806;SDS011;47726;52.766;6.606;2023-03-01T10:35:16;8.98;;;5.45;;
61806;SDS011;47726;52.766;6.606;2023-03-01T10:38:25;9.77;;;5.70;;
61806;SDS011;47726;52.766;6.606;2023-03-01T10:40:32;10.15;;;5.80;;
61806;SDS011;47726;52.766;6.606;2023-03-01T10:43:00;8.98;;;5.43;;
61806;SDS011;47726;52.766;6.606;2023-03-01T10:45:33;8.75;;;5.88;;
61806;SDS011;47726;52.766;6.606;2023-03-01T10:58:36;10.52;;;7.22;;
61806;SDS011;47726;52.766;6.606;2023-03-01T11:01:04;9.10;;;6.38;;
61806;SDS011;47726;52.766;6.606;2023-03-01T11:03:42;9.77;;;6.93;;
61806;SDS011;47726;52.766;6.606;2023-03-01T11:08:43;10.10;;;6.35;;
61806;SDS011;47726;52.766;6.606;2023-03-01T11:13:58;8.82;;;6.60;;
61806;SDS011;47726;52.766;6.606;2023-03-01T11:16:27;10.23;;;6.15;;
61806;SDS011;47726;52.766;6.606;2023-03-01T11:18:57;7.55;;;5.50;;
61806;SDS011;47726;52.766;6.606;2023-03-01T11:24:49;7.60;;;5.15;;
61806;SDS011;47726;52.766;6.606;2023-03-01T11:27:19;9.43;;;5.35;;
61806;SDS011;47726;52.766;6.606;2023-03-01T11:29:58;7.28;;;5.15;;
61806;SDS011;47726;52.766;6.606;2023-03-01T11:32:32;8.20;;;5.30;;
61806;SDS011;47726;52.766;6.606;2023-03-01T11:35:20;8.25;;;5.50;;
61806;SDS011;47726;52.766;6.606;2023-03-01T11:40:43;8.10;;;5.43;;
61806;SDS011;47726;52.766;6.606;2023-03-01T11:48:52;9.98;;;6.20;;
61806;SDS011;47726;52.766;6.606;2023-03-01T11:51:38;9.32;;;6.35;;
61806;SDS011;47726;52.766;6.606;2023-03-01T11:57:06;8.95;;;6.57;;
61806;SDS011;47726;52.766;6.606;2023-03-01T12:08:26;8.98;;;6.80;;
61806;SDS011;47726;52.766;6.606;2023-03-01T12:17:15;10.23;;;7.82;;
61806;SDS011;47726;52.766;6.606;2023-03-01T12:20:20;10.73;;;7.05;;
61806;SDS011;47726;52.766;6.606;2023-03-01T12:23:07;10.90;;;7.88;;
61806;SDS011;47726;52.766;6.606;2023-03-01T12:42:01;10.45;;;6.95;;
61806;SDS011;47726;52.766;6.606;2023-03-01T12:47:07;9.85;;;6.93;;
61806;SDS011;47726;52.766;6.606;2023-03-01T12:52:29;10.25;;;6.65;;
61806;SDS011;47726;52.766;6.606;2023-03-01T12:55:06;9.98;;;7.07;;
61806;SDS011;47726;52.766;6.606;2023-03-01T12:57:47;10.65;;;7.38;;
61806;SDS011;47726;52.766;6.606;2023-03-01T13:03:09;10.25;;;7.03;;
61806;SDS011;47726;52.766;6.606;2023-03-01T13:08:38;11.50;;;7.55;;
61806;SDS011;47726;52.766;6.606;2023-03-01T13:11:19;11.48;;;7.20;;
61806;SDS011;47726;52.766;6.606;2023-03-01T13:13:46;10.80;;;7.35;;
61806;SDS011;47726;52.766;6.606;2023-03-01T13:21:39;9.50;;;7.20;;
61806;SDS011;47726;52.766;6.606;2023-03-01T13:24:22;9.88;;;7.45;;
61806;SDS011;47726;52.766;6.606;2023-03-01T13:34:52;10.50;;;7.40;;
61806;SDS011;47726;52.766;6.606;2023-03-01T13:37:23;10.33;;;7.40;;
61806;SDS011;47726;52.766;6.606;2023-03-01T13:39:55;11.23;;;8.15;;
61806;SDS011;47726;52.766;6.606;2023-03-01T13:42:34;10.52;;;7.32;;
61806;SDS011;47726;52.766;6.606;2023-03-01T13:45:02;10.57;;;7.65;;
61806;SDS011;47726;52.766;6.606;2023-03-01T13:47:30;11.52;;;7.68;;
61806;SDS011;47726;52.766;6.606;2023-03-01T13:50:00;11.88;;;7.95;;
61806;SDS011;47726;52.766;6.606;2023-03-01T13:52:43;11.07;;;8.15;;
61806;SDS011;47726;52.766;6.606;2023-03-01T13:58:04;10.90;;;8.05;;
61806;SDS011;47726;52.766;6.606;2023-03-01T14:00:41;11.68;;;8.07;;
61806;SDS011;47726;52.766;6.606;2023-03-01T14:03:17;11.75;;;8.43;;
61806;SDS011;47726;52.766;6.606;2023-03-01T14:08:36;12.60;;;8.55;;
61806;SDS011;47726;52.766;6.606;2023-03-01T14:13:57;12.05;;;8.68;;
61806;SDS011;47726;52.766;6.606;2023-03-01T14:19:32;13.68;;;8.70;;
61806;SDS011;47726;52.766;6.606;2023-03-01T14:22:17;12.43;;;9.10;;
61806;SDS011;47726;52.766;6.606;2023-03-01T14:24:55;14.00;;;9.70;;
61806;SDS011;47726;52.766;6.606;2023-03-01T14:27:26;14.20;;;8.75;;
61806;SDS011;47726;52.766;6.606;2023-03-01T14:30:00;12.73;;;8.95;;
61806;SDS011;47726;52.766;6.606;2023-03-01T14:32:29;11.63;;;8.68;;
61806;SDS011;47726;52.766;6.606;2023-03-01T14:34:57;11.95;;;8.80;;
61806;SDS011;47726;52.766;6.606;2023-03-01T14:37:28;13.02;;;9.43;;
61806;SDS011;47726;52.766;6.606;2023-03-01T14:39:59;11.90;;;9.13;;
61806;SDS011;47726;52.766;6.606;2023-03-01T14:42:28;13.02;;;9.35;;
61806;SDS011;47726;52.766;6.606;2023-03-01T14:44:59;13.55;;;9.63;;
61806;SDS011;47726;52.766;6.606;2023-03-01T14:47:27;14.07;;;9.55;;
61806;SDS011;47726;52.766;6.606;2023-03-01T14:49:59;13.48;;;9.82;;
61806;SDS011;47726;52.766;6.606;2023-03-01T14:52:39;16.13;;;9.82;;
61806;SDS011;47726;52.766;6.606;2023-03-01T14:55:15;14.20;;;10.13;;
61806;SDS011;47726;52.766;6.606;2023-03-01T14:57:47;13.52;;;10.15;;
61806;SDS011;47726;52.766;6.606;2023-03-01T15:00:22;14.63;;;9.95;;
61806;SDS011;47726;52.766;6.606;2023-03-01T15:02:53;14.57;;;10.70;;
61806;SDS011;47726;52.766;6.606;2023-03-01T15:05:26;14.02;;;10.52;;
61806;SDS011;47726;52.766;6.606;2023-03-01T15:07:56;15.00;;;10.63;;
61806;SDS011;47726;52.766;6.606;2023-03-01T15:10:25;14.55;;;10.52;;
61806;SDS011;47726;52.766;6.606;2023-03-01T15:12:52;13.48;;;10.05;;
61806;SDS011;47726;52.766;6.606;2023-03-01T15:17:58;15.35;;;10.32;;
61806;SDS011;47726;52.766;6.606;2023-03-01T15:20:30;13.45;;;10.23;;
61806;SDS011;47726;52.766;6.606;2023-03-01T15:23:00;15.73;;;10.23;;
61806;SDS011;47726;52.766;6.606;2023-03-01T15:25:27;13.77;;;10.52;;
61806;SDS011;47726;52.766;6.606;2023-03-01T15:27:56;14.05;;;10.05;;
61806;SDS011;47726;52.766;6.606;2023-03-01T15:30:25;14.35;;;10.65;;
61806;SDS011;47726;52.766;6.606;2023-03-01T15:33:19;13.35;;;10.15;;
61806;SDS011;47726;52.766;6.606;2023-03-01T15:35:53;12.77;;;9.65;;
61806;SDS011;47726;52.766;6.606;2023-03-01T15:43:51;13.98;;;10.07;;
61806;SDS011;47726;52.766;6.606;2023-03-01T15:48:50;14.20;;;10.65;;
61806;SDS011;47726;52.766;6.606;2023-03-01T15:51:29;14.45;;;10.70;;
61806;SDS011;47726;52.766;6.606;2023-03-01T15:54:00;13.02;;;10.23;;
61806;SDS011;47726;52.766;6.606;2023-03-01T15:56:29;14.43;;;10.50;;
61806;SDS011;47726;52.766;6.606;2023-03-01T15:59:01;14.20;;;10.80;;
61806;SDS011;47726;52.766;6.606;2023-03-01T16:01:28;14.35;;;10.55;;
61806;SDS011;47726;52.766;6.606;2023-03-01T16:03:54;13.77;;;10.95;;
61806;SDS011;47726;52.766;6.606;2023-03-01T16:06:20;13.77;;;10.65;;
61806;SDS011;47726;52.766;6.606;2023-03-01T16:08:45;14.90;;;10.63;;
61806;SDS011;47726;52.766;6.606;2023-03-01T16:11:13;14.60;;;10.98;;
61806;SDS011;47726;52.766;6.606;2023-03-01T16:13:42;13.57;;;10.15;;
61806;SDS011;47726;52.766;6.606;2023-03-01T16:16:11;16.90;;;10.95;;
61806;SDS011;47726;52.766;6.606;2023-03-01T16:18:41;15.07;;;10.15;;
61806;SDS011;47726;52.766;6.606;2023-03-01T16:21:10;17.30;;;11.38;;
61806;SDS011;47726;52.766;6.606;2023-03-01T16:23:55;14.68;;;10.80;;
61806;SDS011;47726;52.766;6.606;2023-03-01T16:26:21;14.57;;;11.15;;
61806;SDS011;47726;52.766;6.606;2023-03-01T16:28:47;13.55;;;10.85;;
61806;SDS011;47726;52.766;6.606;2023-03-01T16:31:15;15.35;;;11.35;;
61806;SDS011;47726;52.766;6.606;2023-03-01T16:33:44;14.88;;;11.55;;
61806;SDS011;47726;52.766;6.606;2023-03-01T16:36:14;15.80;;;11.82;;
61806;SDS011;47726;52.766;6.606;2023-03-01T16:38:41;15.95;;;11.60;;
61806;SDS011;47726;52.766;6.606;2023-03-01T16:41:17;15.98;;;12.18;;
61806;SDS011;47726;52.766;6.606;2023-03-01T16:43:44;16.67;;;12.13;;
61806;SDS011;47726;52.766;6.606;2023-03-01T16:46:18;16.02;;;11.82;;
61806;SDS011;47726;52.766;6.606;2023-03-01T16:48:45;15.43;;;11.82;;
61806;SDS011;47726;52.766;6.606;2023-03-01T16:51:11;14.57;;;11.57;;
61806;SDS011;47726;52.766;6.606;2023-03-01T16:53:38;17.13;;;12.13;;
61806;SDS011;47726;52.766;6.606;2023-03-01T16:56:07;17.20;;;13.10;;
61806;SDS011;47726;52.766;6.606;2023-03-01T16:58:35;17.02;;;13.43;;
61806;SDS011;47726;52.766;6.606;2023-03-01T17:01:06;18.70;;;13.30;;
61806;SDS011;47726;52.766;6.606;2023-03-01T17:03:33;22.85;;;14.88;;